sensor_id;sensor_type;location;lat;lon;timestamp;P1;durP1;ratioP1;P2;durP2;ratioP2
32347;SDS011;18821;44.800;10.326;2023-02-28T00:02:25;19.60;;;8.00;;
32347;SDS011;18821;44.800;10.326;2023-02-28T00:04:51;17.98;;;9.18;;
32347;SDS011;18821;44.800;10.326;2023-02-28T00:07:26;13.77;;;8.50;;
32347;SDS011;18821;44.800;10.326;2023-02-28T00:09:53;16.60;;;8.30;;
32347;SDS011;18821;44.800;10.326;2023-02-28T00:12:19;18.17;;;8.80;;
32347;SDS011;18821;44.800;10.326;2023-02-28T00:14:45;22.02;;;9.05;;
32347;SDS011;18821;44.800;10.326;2023-02-28T00:17:11;20.25;;;9.18;;
32347;SDS011;18821;44.800;10.326;2023-02-28T00:19:37;19.30;;;9.48;;
32347;SDS011;18821;44.800;10.326;2023-02-28T00:22:02;20.20;;;9.77;;
32347;SDS011;18821;44.800;10.326;2023-02-28T00:24:28;16.35;;;8.55;;
32347;SDS011;18821;44.800;10.326;2023-02-28T00:26:54;18.75;;;9.00;;
32347;SDS011;18821;44.800;10.326;2023-02-28T00:29:20;21.50;;;9.38;;
32347;SDS011;18821;44.800;10.326;2023-02-28T00:31:46;15.68;;;8.82;;
32347;SDS011;18821;44.800;10.326;2023-02-28T00:34:12;16.38;;;8.23;;
32347;SDS011;18821;44.800;10.326;2023-02-28T00:36:38;17.15;;;9.52;;
32347;SDS011;18821;44.800;10.326;2023-02-28T00:39:06;15.90;;;8.25;;
32347;SDS011;18821;44.800;10.326;2023-02-28T00:41:32;20.88;;;9.10;;
32347;SDS011;18821;44.800;10.326;2023-02-28T00:43:57;19.67;;;9.50;;
32347;SDS011;18821;44.800;10.326;2023-02-28T00:46:23;19.77;;;8.63;;
32347;SDS011;18821;44.800;10.326;2023-02-28T00:48:49;19.08;;;8.95;;
32347;SDS011;18821;44.800;10.326;2023-02-28T00:51:15;22.10;;;8.82;;
32347;SDS011;18821;44.800;10.326;2023-02-28T00:53:41;21.45;;;9.38;;
32347;SDS011;18821;44.800;10.326;2023-02-28T00:56:07;16.67;;;8.93;;
32347;SDS011;18821;44.800;10.326;2023-02-28T00:58:33;19.48;;;9.02;;
32347;SDS011;18821;44.800;10.326;2023-02-28T01:00:59;24.83;;;10.07;;
32347;SDS011;18821;44.800;10.326;2023-02-28T01:03:25;23.23;;;9.50;;
32347;SDS011;18821;44.800;10.326;2023-02-28T01:05:51;17.50;;;8.60;;
32347;SDS011;18821;44.800;10.326;2023-02-28T01:08:18;20.13;;;8.05;;
32347;SDS011;18821;44.800;10.326;2023-02-28T01:10:44;18.17;;;9.32;;
32347;SDS011;18821;44.800;10.326;2023-02-28T01:13:11;15.95;;;8.07;;
32347;SDS011;18821;44.800;10.326;2023-02-28T01:15:37;17.95;;;8.40;;
32347;SDS011;18821;44.800;10.326;2023-02-28T01:18:15;22.58;;;8.80;;
32347;SDS011;18821;44.800;10.326;2023-02-28T01:20:41;17.38;;;7.88;;
32347;SDS011;18821;44.800;10.326;2023-02-28T01:23:08;19.20;;;7.85;;
32347;SDS011;18821;44.800;10.326;2023-02-28T01:25:34;17.58;;;8.50;;
32347;SDS011;18821;44.800;10.326;2023-02-28T01:28:03;24.10;;;8.38;;
32347;SDS011;18821;44.800;10.326;2023-02-28T01:30:31;21.60;;;8.43;;
32347;SDS011;18821;44.800;10.326;2023-02-28T01:32:57;21.65;;;8.52;;
32347;SDS011;18821;44.800;10.326;2023-02-28T01:35:24;18.92;;;8.38;;
32347;SDS011;18821;44.800;10.326;2023-02-28T01:37:50;19.52;;;8.55;;
32347;SDS011;18821;44.800;10.326;2023-02-28T01:40:17;16.95;;;8.45;;
32347;SDS011;18821;44.800;10.326;2023-02-28T01:42:43;13.98;;;7.95;;
32347;SDS011;18821;44.800;10.326;2023-02-28T01:45:28;19.42;;;8.85;;
32347;SDS011;18821;44.800;10.326;2023-02-28T01:47:58;15.63;;;8.35;;
32347;SDS011;18821;44.800;10.326;2023-02-28T01:50:30;14.40;;;7.80;;
32347;SDS011;18821;44.800;10.326;2023-02-28T01:53:00;15.00;;;7.63;;
32347;SDS011;18821;44.800;10.326;2023-02-28T01:55:30;14.80;;;8.15;;
32347;SDS011;18821;44.800;10.326;2023-02-28T01:57:58;18.33;;;8.32;;
32347;SDS011;18821;44.800;10.326;2023-02-28T02:00:27;16.10;;;7.40;;
32347;SDS011;18821;44.800;10.326;2023-02-28T02:02:56;15.68;;;8.45;;
32347;SDS011;18821;44.800;10.326;2023-02-28T02:05:30;17.45;;;7.97;;
32347;SDS011;18821;44.800;10.326;2023-02-28T02:07:57;18.80;;;8.63;;
32347;SDS011;18821;44.800;10.326;2023-02-28T02:10:32;12.32;;;7.70;;
32347;SDS011;18821;44.800;10.326;2023-02-28T02:32:16;13.77;;;7.45;;
32347;SDS011;18821;44.800;10.326;2023-02-28T02:37:37;15.60;;;7.22;;
32347;SDS011;18821;44.800;10.326;2023-02-28T02:40:25;13.13;;;7.05;;
32347;SDS011;18821;44.800;10.326;2023-02-28T02:43:18;11.57;;;7.63;;
32347;SDS011;18821;44.800;10.326;2023-02-28T02:45:52;12.93;;;7.32;;
32347;SDS011;18821;44.800;10.326;2023-02-28T02:48:29;14.52;;;7.55;;
32347;SDS011;18821;44.800;10.326;2023-02-28T02:50:58;14.23;;;8.25;;
32347;SDS011;18821;44.800;10.326;2023-02-28T02:53:29;13.73;;;7.80;;
32347;SDS011;18821;44.800;10.326;2023-02-28T02:56:01;13.25;;;6.97;;
32347;SDS011;18821;44.800;10.326;2023-02-28T02:58:32;12.90;;;7.97;;
32347;SDS011;18821;44.800;10.326;2023-02-28T03:01:07;13.55;;;7.85;;
32347;SDS011;18821;44.800;10.326;2023-02-28T03:03:38;13.55;;;7.85;;
32347;SDS011;18821;44.800;10.326;2023-02-28T03:06:04;13.98;;;8.15;;
32347;SDS011;18821;44.800;10.326;2023-02-28T03:08:35;12.63;;;7.65;;
32347;SDS011;18821;44.800;10.326;2023-02-28T03:11:04;16.17;;;8.15;;
32347;SDS011;18821;44.800;10.326;2023-02-28T03:20:01;14.10;;;8.00;;
32347;SDS011;18821;44.800;10.326;2023-02-28T03:30:49;17.92;;;7.90;;
32347;SDS011;18821;44.800;10.326;2023-02-28T03:33:28;16.23;;;8.43;;
32347;SDS011;18821;44.800;10.326;2023-02-28T03:35:59;15.98;;;7.72;;
32347;SDS011;18821;44.800;10.326;2023-02-28T03:43:40;12.90;;;7.80;;
32347;SDS011;18821;44.800;10.326;2023-02-28T03:46:10;17.23;;;8.52;;
32347;SDS011;18821;44.800;10.326;2023-02-28T03:48:45;15.05;;;8.13;;
32347;SDS011;18821;44.800;10.326;2023-02-28T03:51:17;16.88;;;8.40;;
32347;SDS011;18821;44.800;10.326;2023-02-28T03:53:48;12.57;;;7.40;;
32347;SDS011;18821;44.800;10.326;2023-02-28T03:56:27;12.90;;;7.70;;
32347;SDS011;18821;44.800;10.326;2023-02-28T03:59:00;13.90;;;8.32;;
32347;SDS011;18821;44.800;10.326;2023-02-28T04:04:00;13.70;;;7.15;;
32347;SDS011;18821;44.800;10.326;2023-02-28T04:06:27;15.63;;;7.78;;
32347;SDS011;18821;44.800;10.326;2023-02-28T04:08:56;14.45;;;7.63;;
32347;SDS011;18821;44.800;10.326;2023-02-28T04:13:52;17.08;;;8.18;;
32347;SDS011;18821;44.800;10.326;2023-02-28T04:16:18;12.60;;;8.20;;
32347;SDS011;18821;44.800;10.326;2023-02-28T04:18:44;14.13;;;8.05;;
32347;SDS011;18821;44.800;10.326;2023-02-28T04:21:10;14.23;;;7.65;;
32347;SDS011;18821;44.800;10.326;2023-02-28T04:23:36;14.52;;;7.35;;
32347;SDS011;18821;44.800;10.326;2023-02-28T04:26:02;18.10;;;8.50;;
32347;SDS011;18821;44.800;10.326;2023-02-28T04:28:29;12.98;;;7.30;;
32347;SDS011;18821;44.800;10.326;2023-02-28T04:30:56;13.02;;;7.40;;
32347;SDS011;18821;44.800;10.326;2023-02-28T04:33:23;14.93;;;7.78;;
32347;SDS011;18821;44.800;10.326;2023-02-28T04:35:57;11.98;;;7.95;;
32347;SDS011;18821;44.800;10.326;2023-02-28T04:38:25;15.77;;;7.78;;
32347;SDS011;18821;44.800;10.326;2023-02-28T04:40:51;13.65;;;7.63;;
32347;SDS011;18821;44.800;10.326;2023-02-28T04:43:16;15.25;;;8.27;;
32347;SDS011;18821;44.800;10.326;2023-02-28T04:45:42;13.50;;;7.30;;
32347;SDS011;18821;44.800;10.326;2023-02-28T04:48:09;16.80;;;8.40;;
32347;SDS011;18821;44.800;10.326;2023-02-28T04:50:35;15.05;;;8.00;;
32347;SDS011;18821;44.800;10.326;2023-02-28T04:53:01;12.23;;;7.80;;
32347;SDS011;18821;44.800;10.326;2023-02-28T04:55:26;15.98;;;8.70;;
32347;SDS011;18821;44.800;10.326;2023-02-28T04:57:52;17.00;;;8.45;;
32347;SDS011;18821;44.800;10.326;2023-02-28T05:00:18;14.77;;;7.75;;
32347;SDS011;18821;44.800;10.326;2023-02-28T05:02:45;12.35;;;8.13;;
32347;SDS011;18821;44.800;10.326;2023-02-28T05:05:11;14.73;;;7.72;;
32347;SDS011;18821;44.800;10.326;2023-02-28T05:07:43;11.40;;;7.78;;
32347;SDS011;18821;44.800;10.326;2023-02-28T05:10:10;15.30;;;7.50;;
32347;SDS011;18821;44.800;10.326;2023-02-28T05:12:36;13.52;;;8.00;;
32347;SDS011;18821;44.800;10.326;2023-02-28T05:15:04;14.20;;;8.18;;
32347;SDS011;18821;44.800;10.326;2023-02-28T05:17:30;13.80;;;7.60;;
32347;SDS011;18821;44.800;10.326;2023-02-28T05:19:56;14.82;;;8.05;;
32347;SDS011;18821;44.800;10.326;2023-02-28T05:22:22;10.63;;;7.63;;
32347;SDS011;18821;44.800;10.326;2023-02-28T05:24:48;17.70;;;8.35;;
32347;SDS011;18821;44.800;10.326;2023-02-28T05:27:14;15.40;;;8.93;;
32347;SDS011;18821;44.800;10.326;2023-02-28T05:29:40;13.93;;;8.48;;
32347;SDS011;18821;44.800;10.326;2023-02-28T05:32:09;17.55;;;8.13;;
32347;SDS011;18821;44.800;10.326;2023-02-28T05:34:37;13.65;;;8.65;;
32347;SDS011;18821;44.800;10.326;2023-02-28T05:37:05;13.30;;;8.02;;
32347;SDS011;18821;44.800;10.326;2023-02-28T05:39:32;15.82;;;8.60;;
32347;SDS011;18821;44.800;10.326;2023-02-28T05:41:58;12.93;;;7.65;;
32347;SDS011;18821;44.800;10.326;2023-02-28T05:44:24;17.05;;;8.05;;
32347;SDS011;18821;44.800;10.326;2023-02-28T05:46:50;12.88;;;8.13;;
32347;SDS011;18821;44.800;10.326;2023-02-28T05:49:16;12.35;;;7.50;;
32347;SDS011;18821;44.800;10.326;2023-02-28T05:51:42;14.57;;;8.32;;
32347;SDS011;18821;44.800;10.326;2023-02-28T05:54:09;15.65;;;8.07;;
32347;SDS011;18821;44.800;10.326;2023-02-28T05:56:35;13.48;;;7.95;;
32347;SDS011;18821;44.800;10.326;2023-02-28T05:59:03;15.02;;;8.10;;
32347;SDS011;18821;44.800;10.326;2023-02-28T06:04:01;15.88;;;8.20;;
32347;SDS011;18821;44.800;10.326;2023-02-28T06:06:29;15.23;;;9.60;;
32347;SDS011;18821;44.800;10.326;2023-02-28T06:08:55;19.10;;;9.07;;
32347;SDS011;18821;44.800;10.326;2023-02-28T06:11:22;14.00;;;7.85;;
32347;SDS011;18821;44.800;10.326;2023-02-28T06:13:58;13.55;;;8.82;;
32347;SDS011;18821;44.800;10.326;2023-02-28T06:16:29;19.92;;;8.93;;
32347;SDS011;18821;44.800;10.326;2023-02-28T06:18:57;17.35;;;8.70;;
32347;SDS011;18821;44.800;10.326;2023-02-28T06:21:24;14.93;;;9.02;;
32347;SDS011;18821;44.800;10.326;2023-02-28T06:23:52;19.40;;;9.02;;
32347;SDS011;18821;44.800;10.326;2023-02-28T06:26:18;18.58;;;9.13;;
32347;SDS011;18821;44.800;10.326;2023-02-28T06:28:45;15.30;;;9.02;;
32347;SDS011;18821;44.800;10.326;2023-02-28T06:31:14;17.50;;;10.13;;
32347;SDS011;18821;44.800;10.326;2023-02-28T06:33:42;16.80;;;9.13;;
32347;SDS011;18821;44.800;10.326;2023-02-28T06:36:09;17.50;;;9.75;;
32347;SDS011;18821;44.800;10.326;2023-02-28T06:38:36;17.30;;;10.10;;
32347;SDS011;18821;44.800;10.326;2023-02-28T06:41:02;19.40;;;10.32;;
32347;SDS011;18821;44.800;10.326;2023-02-28T06:43:29;16.40;;;9.13;;
32347;SDS011;18821;44.800;10.326;2023-02-28T06:45:59;17.20;;;10.48;;
32347;SDS011;18821;44.800;10.326;2023-02-28T06:48:26;20.55;;;10.65;;
32347;SDS011;18821;44.800;10.326;2023-02-28T06:50:52;26.30;;;9.93;;
32347;SDS011;18821;44.800;10.326;2023-02-28T06:53:30;18.52;;;10.50;;
32347;SDS011;18821;44.800;10.326;2023-02-28T06:55:56;24.60;;;10.05;;
32347;SDS011;18821;44.800;10.326;2023-02-28T06:58:24;28.38;;;9.82;;
32347;SDS011;18821;44.800;10.326;2023-02-28T07:00:51;24.45;;;10.82;;
32347;SDS011;18821;44.800;10.326;2023-02-28T07:03:18;21.73;;;9.57;;
32347;SDS011;18821;44.800;10.326;2023-02-28T07:05:44;23.45;;;10.07;;
32347;SDS011;18821;44.800;10.326;2023-02-28T07:08:11;38.63;;;10.75;;
32347;SDS011;18821;44.800;10.326;2023-02-28T07:10:37;29.15;;;10.00;;
32347;SDS011;18821;44.800;10.326;2023-02-28T07:13:04;21.02;;;12.25;;
32347;SDS011;18821;44.800;10.326;2023-02-28T07:15:30;24.60;;;11.25;;
32347;SDS011;18821;44.800;10.326;2023-02-28T07:17:56;20.52;;;11.00;;
32347;SDS011;18821;44.800;10.326;2023-02-28T07:20:23;19.98;;;9.73;;
32347;SDS011;18821;44.800;10.326;2023-02-28T07:22:49;23.48;;;10.43;;
32347;SDS011;18821;44.800;10.326;2023-02-28T07:25:25;25.45;;;10.82;;
32347;SDS011;18821;44.800;10.326;2023-02-28T07:27:53;27.55;;;10.98;;
32347;SDS011;18821;44.800;10.326;2023-02-28T07:30:20;27.58;;;10.07;;
32347;SDS011;18821;44.800;10.326;2023-02-28T07:32:46;21.17;;;10.23;;
32347;SDS011;18821;44.800;10.326;2023-02-28T07:35:12;17.17;;;9.82;;
32347;SDS011;18821;44.800;10.326;2023-02-28T07:37:41;25.13;;;10.30;;
32347;SDS011;18821;44.800;10.326;2023-02-28T07:40:08;17.33;;;10.18;;
32347;SDS011;18821;44.800;10.326;2023-02-28T07:42:39;21.85;;;10.07;;
32347;SDS011;18821;44.800;10.326;2023-02-28T07:45:08;17.40;;;9.80;;
32347;SDS011;18821;44.800;10.326;2023-02-28T07:47:40;20.20;;;10.38;;
32347;SDS011;18821;44.800;10.326;2023-02-28T07:50:08;17.45;;;8.90;;
32347;SDS011;18821;44.800;10.326;2023-02-28T07:52:36;16.73;;;9.55;;
32347;SDS011;18821;44.800;10.326;2023-02-28T07:55:04;16.48;;;9.68;;
32347;SDS011;18821;44.800;10.326;2023-02-28T07:57:31;17.73;;;9.07;;
32347;SDS011;18821;44.800;10.326;2023-02-28T07:59:57;18.98;;;9.73;;
32347;SDS011;18821;44.800;10.326;2023-02-28T08:02:24;17.33;;;9.20;;
32347;SDS011;18821;44.800;10.326;2023-02-28T08:04:50;21.67;;;11.82;;
32347;SDS011;18821;44.800;10.326;2023-02-28T08:07:16;21.05;;;9.77;;
32347;SDS011;18821;44.800;10.326;2023-02-28T08:09:43;16.23;;;9.13;;
32347;SDS011;18821;44.800;10.326;2023-02-28T08:12:10;18.02;;;9.38;;
32347;SDS011;18821;44.800;10.326;2023-02-28T08:14:37;16.05;;;9.27;;
32347;SDS011;18821;44.800;10.326;2023-02-28T08:17:04;15.18;;;8.93;;
32347;SDS011;18821;44.800;10.326;2023-02-28T08:19:31;21.83;;;8.63;;
32347;SDS011;18821;44.800;10.326;2023-02-28T08:21:57;15.45;;;9.38;;
32347;SDS011;18821;44.800;10.326;2023-02-28T08:24:23;19.85;;;9.30;;
32347;SDS011;18821;44.800;10.326;2023-02-28T08:26:49;15.85;;;8.27;;
32347;SDS011;18821;44.800;10.326;2023-02-28T08:29:15;18.45;;;9.82;;
32347;SDS011;18821;44.800;10.326;2023-02-28T08:31:42;18.45;;;9.80;;
32347;SDS011;18821;44.800;10.326;2023-02-28T08:34:08;15.88;;;9.13;;
32347;SDS011;18821;44.800;10.326;2023-02-28T08:36:36;15.77;;;8.98;;
32347;SDS011;18821;44.800;10.326;2023-02-28T08:39:02;13.45;;;8.80;;
32347;SDS011;18821;44.800;10.326;2023-02-28T08:41:29;18.23;;;9.63;;
32347;SDS011;18821;44.800;10.326;2023-02-28T08:43:55;20.40;;;11.18;;
32347;SDS011;18821;44.800;10.326;2023-02-28T08:46:21;17.80;;;10.00;;
32347;SDS011;18821;44.800;10.326;2023-02-28T08:48:50;17.77;;;10.15;;
32347;SDS011;18821;44.800;10.326;2023-02-28T08:51:18;37.33;;;12.88;;
32347;SDS011;18821;44.800;10.326;2023-02-28T08:53:52;17.77;;;9.68;;
32347;SDS011;18821;44.800;10.326;2023-02-28T08:56:24;19.80;;;11.63;;
32347;SDS011;18821;44.800;10.326;2023-02-28T08:58:54;22.80;;;10.13;;
32347;SDS011;18821;44.800;10.326;2023-02-28T09:01:22;13.70;;;8.02;;
32347;SDS011;18821;44.800;10.326;2023-02-28T09:03:52;14.45;;;9.30;;
32347;SDS011;18821;44.800;10.326;2023-02-28T09:06:19;21.05;;;10.02;;
32347;SDS011;18821;44.800;10.326;2023-02-28T09:08:47;130.07;;;17.27;;
32347;SDS011;18821;44.800;10.326;2023-02-28T09:11:13;15.48;;;9.35;;
32347;SDS011;18821;44.800;10.326;2023-02-28T09:13:39;17.30;;;9.68;;
32347;SDS011;18821;44.800;10.326;2023-02-28T09:16:07;16.05;;;9.75;;
32347;SDS011;18821;44.800;10.326;2023-02-28T09:18:36;19.08;;;8.80;;
32347;SDS011;18821;44.800;10.326;2023-02-28T09:21:06;16.88;;;9.32;;
32347;SDS011;18821;44.800;10.326;2023-02-28T09:23:36;19.95;;;9.05;;
32347;SDS011;18821;44.800;10.326;2023-02-28T09:26:05;18.98;;;10.50;;
32347;SDS011;18821;44.800;10.326;2023-02-28T09:28:32;16.10;;;9.27;;
32347;SDS011;18821;44.800;10.326;2023-02-28T09:30:58;15.88;;;10.15;;
32347;SDS011;18821;44.800;10.326;2023-02-28T09:33:24;22.67;;;14.52;;
32347;SDS011;18821;44.800;10.326;2023-02-28T09:35:51;14.75;;;9.57;;
32347;SDS011;18821;44.800;10.326;2023-02-28T09:38:24;20.17;;;9.25;;
32347;SDS011;18821;44.800;10.326;2023-02-28T09:40:55;17.40;;;9.60;;
32347;SDS011;18821;44.800;10.326;2023-02-28T09:43:33;14.75;;;9.07;;
32347;SDS011;18821;44.800;10.326;2023-02-28T09:49:22;16.80;;;10.00;;
32347;SDS011;18821;44.800;10.326;2023-02-28T09:51:58;19.55;;;10.68;;
32347;SDS011;18821;44.800;10.326;2023-02-28T09:54:30;17.83;;;10.25;;
32347;SDS011;18821;44.800;10.326;2023-02-28T10:02:46;16.70;;;10.23;;
32347;SDS011;18821;44.800;10.326;2023-02-28T10:08:14;14.35;;;9.68;;
32347;SDS011;18821;44.800;10.326;2023-02-28T10:11:03;15.70;;;10.27;;
32347;SDS011;18821;44.800;10.326;2023-02-28T10:13:36;20.52;;;9.90;;
32347;SDS011;18821;44.800;10.326;2023-02-28T10:16:07;18.48;;;10.23;;
32347;SDS011;18821;44.800;10.326;2023-02-28T10:18:43;22.35;;;11.35;;
32347;SDS011;18821;44.800;10.326;2023-02-28T10:24:37;16.85;;;9.80;;
32347;SDS011;18821;44.800;10.326;2023-02-28T10:27:16;16.48;;;9.68;;
32347;SDS011;18821;44.800;10.326;2023-02-28T10:30:00;12.57;;;8.38;;
32347;SDS011;18821;44.800;10.326;2023-02-28T10:32:32;16.27;;;9.25;;
32347;SDS011;18821;44.800;10.326;2023-02-28T10:37:32;19.27;;;9.45;;
32347;SDS011;18821;44.800;10.326;2023-02-28T10:40:03;15.98;;;10.45;;
32347;SDS011;18821;44.800;10.326;2023-02-28T10:43:03;15.88;;;9.45;;
32347;SDS011;18821;44.800;10.326;2023-02-28T10:45:32;15.48;;;8.73;;
32347;SDS011;18821;44.800;10.326;2023-02-28T10:50:43;29.77;;;11.70;;
32347;SDS011;18821;44.800;10.326;2023-02-28T11:06:58;19.27;;;10.05;;
32347;SDS011;18821;44.800;10.326;2023-02-28T11:09:28;16.33;;;9.32;;
32347;SDS011;18821;44.800;10.326;2023-02-28T11:11:54;15.35;;;9.45;;
32347;SDS011;18821;44.800;10.326;2023-02-28T11:14:25;14.52;;;9.80;;
32347;SDS011;18821;44.800;10.326;2023-02-28T11:16:58;15.90;;;9.63;;
32347;SDS011;18821;44.800;10.326;2023-02-28T11:19:30;18.88;;;8.73;;
32347;SDS011;18821;44.800;10.326;2023-02-28T11:22:05;15.38;;;8.98;;
32347;SDS011;18821;44.800;10.326;2023-02-28T11:24:33;16.20;;;8.55;;
32347;SDS011;18821;44.800;10.326;2023-02-28T11:27:02;17.73;;;9.80;;
32347;SDS011;18821;44.800;10.326;2023-02-28T11:29:30;16.52;;;9.88;;
32347;SDS011;18821;44.800;10.326;2023-02-28T11:34:44;19.02;;;10.40;;
32347;SDS011;18821;44.800;10.326;2023-02-28T11:37:13;21.60;;;9.65;;
32347;SDS011;18821;44.800;10.326;2023-02-28T11:39:42;16.08;;;8.88;;
32347;SDS011;18821;44.800;10.326;2023-02-28T11:42:11;17.52;;;9.63;;
32347;SDS011;18821;44.800;10.326;2023-02-28T11:44:58;20.90;;;9.95;;
32347;SDS011;18821;44.800;10.326;2023-02-28T11:50:22;15.88;;;10.10;;
32347;SDS011;18821;44.800;10.326;2023-02-28T11:56:15;16.75;;;9.55;;
32347;SDS011;18821;44.800;10.326;2023-02-28T11:59:19;16.42;;;10.18;;
32347;SDS011;18821;44.800;10.326;2023-02-28T12:04:46;16.35;;;9.90;;
32347;SDS011;18821;44.800;10.326;2023-02-28T12:12:56;19.77;;;10.63;;
32347;SDS011;18821;44.800;10.326;2023-02-28T12:15:36;18.83;;;11.25;;
32347;SDS011;18821;44.800;10.326;2023-02-28T12:18:49;16.60;;;10.55;;
32347;SDS011;18821;44.800;10.326;2023-02-28T12:26:55;16.23;;;10.00;;
32347;SDS011;18821;44.800;10.326;2023-02-28T12:29:30;18.88;;;10.65;;
32347;SDS011;18821;44.800;10.326;2023-02-28T12:32:09;17.13;;;11.18;;
32347;SDS011;18821;44.800;10.326;2023-02-28T12:34:49;17.67;;;10.88;;
32347;SDS011;18821;44.800;10.326;2023-02-28T12:37:29;18.20;;;10.88;;
32347;SDS011;18821;44.800;10.326;2023-02-28T12:40:05;20.23;;;10.57;;
32347;SDS011;18821;44.800;10.326;2023-02-28T12:42:39;20.88;;;11.68;;
32347;SDS011;18821;44.800;10.326;2023-02-28T12:45:17;24.77;;;12.63;;
32347;SDS011;18821;44.800;10.326;2023-02-28T12:47:47;19.95;;;12.10;;
32347;SDS011;18821;44.800;10.326;2023-02-28T12:50:17;22.45;;;11.80;;
32347;SDS011;18821;44.800;10.326;2023-02-28T12:52:51;18.83;;;10.10;;
32347;SDS011;18821;44.800;10.326;2023-02-28T13:09:18;20.73;;;11.30;;
32347;SDS011;18821;44.800;10.326;2023-02-28T13:11:45;22.02;;;12.15;;
32347;SDS011;18821;44.800;10.326;2023-02-28T13:16:56;17.83;;;11.02;;
32347;SDS011;18821;44.800;10.326;2023-02-28T13:19:29;18.23;;;11.07;;
32347;SDS011;18821;44.800;10.326;2023-02-28T13:21:57;26.55;;;11.50;;
32347;SDS011;18821;44.800;10.326;2023-02-28T13:29:39;17.48;;;11.05;;
32347;SDS011;18821;44.800;10.326;2023-02-28T13:47:32;21.95;;;11.50;;
32347;SDS011;18821;44.800;10.326;2023-02-28T13:50:58;21.98;;;11.80;;
32347;SDS011;18821;44.800;10.326;2023-02-28T13:53:32;17.45;;;11.13;;
32347;SDS011;18821;44.800;10.326;2023-02-28T13:56:19;18.95;;;10.75;;
32347;SDS011;18821;44.800;10.326;2023-02-28T13:58:55;19.60;;;11.95;;
32347;SDS011;18821;44.800;10.326;2023-02-28T14:07:41;23.52;;;12.27;;
32347;SDS011;18821;44.800;10.326;2023-02-28T14:10:23;19.90;;;12.55;;
32347;SDS011;18821;44.800;10.326;2023-02-28T14:13:03;21.90;;;12.05;;
32347;SDS011;18821;44.800;10.326;2023-02-28T14:20:48;17.85;;;11.93;;
32347;SDS011;18821;44.800;10.326;2023-02-28T14:27:04;21.85;;;12.23;;
32347;SDS011;18821;44.800;10.326;2023-02-28T14:37:18;20.20;;;13.07;;
32347;SDS011;18821;44.800;10.326;2023-02-28T14:39:48;27.55;;;14.98;;
32347;SDS011;18821;44.800;10.326;2023-02-28T14:42:34;21.88;;;13.45;;
32347;SDS011;18821;44.800;10.326;2023-02-28T14:45:04;20.30;;;12.70;;
32347;SDS011;18821;44.800;10.326;2023-02-28T14:47:32;20.67;;;12.90;;
32347;SDS011;18821;44.800;10.326;2023-02-28T14:50:00;21.25;;;12.48;;
32347;SDS011;18821;44.800;10.326;2023-02-28T14:52:30;25.00;;;13.40;;
32347;SDS011;18821;44.800;10.326;2023-02-28T14:54:59;21.58;;;12.40;;
32347;SDS011;18821;44.800;10.326;2023-02-28T14:57:29;19.08;;;12.18;;
32347;SDS011;18821;44.800;10.326;2023-02-28T15:00:11;25.70;;;13.10;;
32347;SDS011;18821;44.800;10.326;2023-02-28T15:02:46;22.02;;;12.80;;
32347;SDS011;18821;44.800;10.326;2023-02-28T15:07:42;20.00;;;13.18;;
32347;SDS011;18821;44.800;10.326;2023-02-28T15:10:17;22.48;;;13.55;;
32347;SDS011;18821;44.800;10.326;2023-02-28T15:12:55;22.67;;;13.65;;
32347;SDS011;18821;44.800;10.326;2023-02-28T15:15:27;20.98;;;13.40;;
32347;SDS011;18821;44.800;10.326;2023-02-28T15:18:20;20.52;;;13.50;;
32347;SDS011;18821;44.800;10.326;2023-02-28T15:20:55;27.80;;;14.98;;
32347;SDS011;18821;44.800;10.326;2023-02-28T15:23:28;27.25;;;13.75;;
32347;SDS011;18821;44.800;10.326;2023-02-28T15:25:55;31.15;;;14.85;;
32347;SDS011;18821;44.800;10.326;2023-02-28T15:28:22;30.02;;;14.60;;
32347;SDS011;18821;44.800;10.326;2023-02-28T15:30:51;27.80;;;14.23;;
32347;SDS011;18821;44.800;10.326;2023-02-28T15:33:20;23.20;;;14.23;;
32347;SDS011;18821;44.800;10.326;2023-02-28T15:35:48;24.38;;;14.50;;
32347;SDS011;18821;44.800;10.326;2023-02-28T15:40:50;23.73;;;13.93;;
32347;SDS011;18821;44.800;10.326;2023-02-28T15:43:28;23.83;;;14.20;;
32347;SDS011;18821;44.800;10.326;2023-02-28T15:46:04;23.13;;;14.23;;
32347;SDS011;18821;44.800;10.326;2023-02-28T15:54:05;25.27;;;14.32;;
32347;SDS011;18821;44.800;10.326;2023-02-28T15:56:35;22.65;;;14.07;;
32347;SDS011;18821;44.800;10.326;2023-02-28T15:59:12;22.88;;;14.50;;
32347;SDS011;18821;44.800;10.326;2023-02-28T16:01:42;23.52;;;15.35;;
32347;SDS011;18821;44.800;10.326;2023-02-28T16:04:16;27.65;;;16.45;;
32347;SDS011;18821;44.800;10.326;2023-02-28T16:09:37;24.65;;;15.05;;
32347;SDS011;18821;44.800;10.326;2023-02-28T16:12:03;30.77;;;16.88;;
32347;SDS011;18821;44.800;10.326;2023-02-28T16:14:32;28.35;;;16.23;;
32347;SDS011;18821;44.800;10.326;2023-02-28T16:17:06;26.83;;;15.65;;
32347;SDS011;18821;44.800;10.326;2023-02-28T16:19:38;33.75;;;19.67;;
32347;SDS011;18821;44.800;10.326;2023-02-28T16:22:07;31.13;;;17.65;;
32347;SDS011;18821;44.800;10.326;2023-02-28T16:24:34;25.02;;;15.60;;
32347;SDS011;18821;44.800;10.326;2023-02-28T16:27:05;27.08;;;15.65;;
32347;SDS011;18821;44.800;10.326;2023-02-28T16:29:34;28.55;;;16.08;;
32347;SDS011;18821;44.800;10.326;2023-02-28T16:32:04;24.15;;;14.32;;
32347;SDS011;18821;44.800;10.326;2023-02-28T16:34:31;20.85;;;14.05;;
32347;SDS011;18821;44.800;10.326;2023-02-28T16:36:57;26.85;;;15.63;;
32347;SDS011;18821;44.800;10.326;2023-02-28T16:39:23;28.10;;;15.75;;
32347;SDS011;18821;44.800;10.326;2023-02-28T16:41:50;28.33;;;16.02;;
32347;SDS011;18821;44.800;10.326;2023-02-28T16:44:30;31.52;;;14.98;;
32347;SDS011;18821;44.800;10.326;2023-02-28T16:46:59;28.75;;;16.15;;
32347;SDS011;18821;44.800;10.326;2023-02-28T16:49:27;27.55;;;15.57;;
32347;SDS011;18821;44.800;10.326;2023-02-28T16:51:54;27.92;;;15.73;;
32347;SDS011;18821;44.800;10.326;2023-02-28T16:54:20;25.63;;;15.02;;
32347;SDS011;18821;44.800;10.326;2023-02-28T16:56:47;30.90;;;14.68;;
32347;SDS011;18821;44.800;10.326;2023-02-28T16:59:15;28.73;;;13.85;;
32347;SDS011;18821;44.800;10.326;2023-02-28T17:01:50;26.75;;;15.07;;
32347;SDS011;18821;44.800;10.326;2023-02-28T17:04:17;25.13;;;14.10;;
32347;SDS011;18821;44.800;10.326;2023-02-28T17:06:43;26.67;;;15.73;;
32347;SDS011;18821;44.800;10.326;2023-02-28T17:09:19;31.00;;;16.13;;
32347;SDS011;18821;44.800;10.326;2023-02-28T17:11:47;32.70;;;16.13;;
32347;SDS011;18821;44.800;10.326;2023-02-28T17:14:15;32.75;;;16.20;;
32347;SDS011;18821;44.800;10.326;2023-02-28T17:16:42;29.60;;;15.75;;
32347;SDS011;18821;44.800;10.326;2023-02-28T17:19:12;30.58;;;15.85;;
32347;SDS011;18821;44.800;10.326;2023-02-28T17:21:39;30.58;;;16.90;;
32347;SDS011;18821;44.800;10.326;2023-02-28T17:24:07;30.08;;;16.38;;
32347;SDS011;18821;44.800;10.326;2023-02-28T17:26:34;28.67;;;15.80;;
32347;SDS011;18821;44.800;10.326;2023-02-28T17:29:00;28.90;;;16.73;;
32347;SDS011;18821;44.800;10.326;2023-02-28T17:31:26;27.90;;;16.10;;
32347;SDS011;18821;44.800;10.326;2023-02-28T17:33:53;28.33;;;16.90;;